Terminal Aerodrome Forecast
Issued by NWS State College, PA

Home | Current Version | Previous Version | Text Only | Print | Product List | Glossary On
Versions: 1 2 3 4 5 6 7 8 9 10 11 12 13 14 15 16 17 18 19 20 21 22 23 24 25 26
000
FTUS41 KCTP 262334
TAFIPT
TAF
KIPT 262334Z 2700/2724 10012G24KT P6SM OVC015
     FM270400 09007KT 4SM -RADZ BR BKN006 OVC012
     FM271600 23007KT 5SM BR BKN018
     FM271800 25008G15KT P6SM BKN030
     FM272000 25008G15KT P6SM BKN035=

USA.gov is the U.S. government's official web portal to all federal, state and local government web resources and services.